createdAt,value
2022-12-23T00:05:10.747Z,989.66
2022-12-23T00:10:54.752Z,989.72
2022-12-23T00:16:39.798Z,989.72
2022-12-23T00:22:22.766Z,989.75
2022-12-23T00:28:05.679Z,989.73
2022-12-23T00:33:49.808Z,989.81
2022-12-23T00:39:33.096Z,989.89
2022-12-23T00:45:16.277Z,989.87
2022-12-23T00:50:59.496Z,989.92
2022-12-23T00:56:42.599Z,990.08
2022-12-23T01:02:25.976Z,990.05
2022-12-23T01:08:10.898Z,990.01
2022-12-23T01:13:54.291Z,990.03
2022-12-23T01:19:37.631Z,990.01
2022-12-23T01:25:21.057Z,990.1
2022-12-23T01:31:05.512Z,990.15
2022-12-23T01:36:48.397Z,990.09
2022-12-23T01:42:31.386Z,990.21
2022-12-23T01:48:16.545Z,990.28
2022-12-23T01:54:02.024Z,990.28
2022-12-23T01:59:46.234Z,990.38
2022-12-23T02:05:29.115Z,990.56
2022-12-23T02:11:19.733Z,990.57
2022-12-23T02:17:08.148Z,990.56
2022-12-23T02:23:00.807Z,990.51
2022-12-23T02:28:57.648Z,990.62
2022-12-23T02:34:43.397Z,990.76
2022-12-23T02:40:30.527Z,990.88
2022-12-23T02:46:18.914Z,990.84
2022-12-23T02:52:03.739Z,990.96
2022-12-23T02:57:49.842Z,990.94
2022-12-23T03:03:32.859Z,991.01
2022-12-23T03:09:19.225Z,991.04
2022-12-23T03:15:12.526Z,991.06
2022-12-23T03:21:01.385Z,991.03
2022-12-23T03:26:49.007Z,990.9
2022-12-23T03:32:35.072Z,990.65
2022-12-23T03:38:20.126Z,990.72
2022-12-23T03:44:06.534Z,990.86
2022-12-23T03:49:52.393Z,990.75
2022-12-23T03:55:38.289Z,990.7
2022-12-23T04:01:26.548Z,990.75
2022-12-23T04:07:11.751Z,990.92
2022-12-23T04:12:55.067Z,991.02
2022-12-23T04:18:37.792Z,991.04
2022-12-23T04:24:20.791Z,991.04
2022-12-23T04:30:03.749Z,991.17
2022-12-23T04:35:46.620Z,991.15
2022-12-23T04:41:29.527Z,991.18
2022-12-23T04:47:12.566Z,991.05
2022-12-23T04:52:56.393Z,990.99
2022-12-23T04:58:39.412Z,990.94
2022-12-23T05:04:22.171Z,990.88
2022-12-23T05:10:05.472Z,990.81
2022-12-23T05:15:49.900Z,990.91
2022-12-23T05:21:33.999Z,991.01
2022-12-23T05:27:16.886Z,990.99
2022-12-23T05:32:59.966Z,990.84
2022-12-23T05:38:43.202Z,990.8
2022-12-23T05:44:26.140Z,990.83
2022-12-23T05:50:09.763Z,990.88
2022-12-23T05:55:53.097Z,990.62
2022-12-23T06:01:36.737Z,990.37
2022-12-23T06:07:20.179Z,990.25
2022-12-23T06:13:03.391Z,990.58
2022-12-23T06:18:46.415Z,990.61
2022-12-23T06:24:29.629Z,990.56
2022-12-23T06:30:13.661Z,990.51
2022-12-23T06:35:56.440Z,990.53
2022-12-23T06:41:40.583Z,990.58
2022-12-23T06:47:23.374Z,990.53
2022-12-23T06:53:06.187Z,990.45
2022-12-23T06:58:49.966Z,990.7
2022-12-23T07:04:32.867Z,990.42
2022-12-23T07:10:15.796Z,990.37
2022-12-23T07:15:58.739Z,990.44
2022-12-23T07:21:41.483Z,990.47
2022-12-23T07:27:24.433Z,990.3
2022-12-23T07:33:06.999Z,990.4
2022-12-23T07:38:50.129Z,990.32
2022-12-23T07:44:33.098Z,990.11
2022-12-23T07:50:16.203Z,990.27
2022-12-23T07:55:59.299Z,990.3
2022-12-23T08:01:42.599Z,990.24
2022-12-23T08:07:27.031Z,990.13
2022-12-23T08:13:09.848Z,990.14
2022-12-23T08:18:52.741Z,990.12
2022-12-23T08:24:36.520Z,990.05
2022-12-23T08:30:19.738Z,990.09
2022-12-23T08:36:02.693Z,990.03
2022-12-23T08:41:46.560Z,989.9
2022-12-23T08:47:30.550Z,989.59
2022-12-23T08:53:14.045Z,989.45
2022-12-23T08:58:57.263Z,989.31
2022-12-23T09:04:40.705Z,989.13
2022-12-23T09:10:23.860Z,989
2022-12-23T09:16:08.067Z,988.95
2022-12-23T09:21:51.096Z,988.93
2022-12-23T09:27:33.939Z,988.94
2022-12-23T09:33:16.655Z,988.77
2022-12-23T09:38:59.784Z,988.76
2022-12-23T09:45:04.069Z,988.8
2022-12-23T09:50:47.314Z,988.67
2022-12-23T09:56:33.479Z,988.75
2022-12-23T10:02:23.182Z,988.47
2022-12-23T10:08:10.376Z,988.33
2022-12-23T10:13:55.446Z,987.93
2022-12-23T10:19:41.063Z,987.7
2022-12-23T10:25:28.859Z,987.41
2022-12-23T10:31:39.585Z,987.25
2022-12-23T10:37:24.119Z,987.31
2022-12-23T10:43:12.542Z,987.26
2022-12-23T10:49:00.720Z,987
2022-12-23T10:54:44.808Z,986.67
2022-12-23T11:00:28.280Z,986.6
2022-12-23T11:06:12.100Z,986.54
2022-12-23T11:12:00.508Z,986.44
2022-12-23T11:17:43.394Z,986.37
2022-12-23T11:23:29.569Z,986.3
2022-12-23T11:29:14.758Z,986.18
2022-12-23T11:34:57.778Z,986.3
2022-12-23T11:40:45.653Z,986.19
2022-12-23T11:46:31.387Z,985.93
2022-12-23T11:52:17.614Z,985.93
2022-12-23T11:58:01.090Z,985.78
2022-12-23T12:03:47.719Z,985.62
2022-12-23T12:09:31.767Z,985.63
2022-12-23T12:15:26.066Z,985.6
2022-12-23T12:21:11.606Z,985.63
2022-12-23T12:26:55.986Z,985.44
2022-12-23T12:32:43.493Z,985.36
2022-12-23T12:38:27.899Z,985.29
2022-12-23T12:44:16.102Z,985.27
2022-12-23T12:50:00.689Z,985.24
2022-12-23T12:55:47.468Z,985.24
2022-12-23T13:01:37.903Z,985.38
2022-12-23T13:07:25.546Z,985.07
2022-12-23T13:13:16.178Z,985.26
2022-12-23T13:19:05.545Z,985.32
2022-12-23T13:24:57.137Z,985.24
2022-12-23T13:30:45.164Z,985.36
2022-12-23T13:36:35.009Z,985.38
2022-12-23T13:42:23.201Z,985.42
2022-12-23T13:48:11.868Z,985.45
2022-12-23T13:54:04.911Z,985.5
2022-12-23T13:59:54.425Z,985.67
2022-12-23T14:05:49.177Z,985.65
2022-12-23T14:11:32.478Z,985.7
2022-12-23T14:17:19.130Z,985.83
2022-12-23T14:23:08.152Z,985.97
2022-12-23T14:28:58.693Z,986.07
2022-12-23T14:34:46.575Z,986.09
2022-12-23T14:40:42.351Z,986.17
2022-12-23T14:46:38.884Z,986.31
2022-12-23T14:52:35.152Z,986.34
2022-12-23T14:58:33.622Z,986.46
2022-12-23T15:04:19.774Z,986.54
2022-12-23T15:10:04.499Z,986.57
2022-12-23T15:16:02.180Z,986.62
2022-12-23T15:21:55.800Z,986.78
2022-12-23T15:27:47.862Z,986.84
2022-12-23T15:34:02.619Z,987.03
2022-12-23T15:39:37.765Z,987.37
2022-12-23T15:45:37.585Z,987.37
2022-12-23T15:51:58.126Z,987.48
2022-12-23T15:57:29.238Z,987.57
2022-12-23T16:03:21.804Z,987.75
2022-12-23T16:09:06.254Z,987.76
2022-12-23T16:14:50.874Z,987.77
2022-12-23T16:20:38.815Z,987.85
2022-12-23T16:26:22.032Z,987.94
2022-12-23T16:32:06.015Z,987.99
2022-12-23T16:37:52.387Z,988.1
2022-12-23T16:43:35.285Z,988.09
2022-12-23T16:49:20.063Z,988.2
2022-12-23T16:55:02.968Z,988.15
2022-12-23T17:00:46.103Z,988.2
2022-12-23T17:06:29.323Z,988.34
2022-12-23T17:12:13.036Z,988.21
2022-12-23T17:17:56.230Z,988.27
2022-12-23T17:23:40.073Z,988.33
2022-12-23T17:29:24.983Z,988.29
2022-12-23T17:35:14.102Z,988.44
2022-12-23T17:40:57.747Z,988.55
2022-12-23T17:46:40.847Z,988.55
2022-12-23T17:52:25.019Z,988.61
2022-12-23T17:58:08.057Z,988.87
2022-12-23T18:03:51.035Z,988.96
2022-12-23T18:09:34.038Z,989.02
2022-12-23T18:15:19.946Z,989.1
2022-12-23T18:21:02.703Z,989.07
2022-12-23T18:26:45.820Z,989.16
2022-12-23T18:32:29.170Z,989.34
2022-12-23T18:38:12.213Z,989.37
2022-12-23T18:43:55.291Z,989.38
2022-12-23T18:49:38.270Z,989.46
2022-12-23T18:55:21.174Z,989.47
2022-12-23T19:01:04.174Z,989.63
2022-12-23T19:06:47.049Z,989.83
2022-12-23T19:12:29.909Z,989.86
2022-12-23T19:18:13.600Z,989.94
2022-12-23T19:23:56.638Z,990.04
2022-12-23T19:29:39.336Z,990.13
2022-12-23T19:35:22.362Z,990.32
2022-12-23T19:41:05.182Z,990.6
2022-12-23T19:46:48.940Z,990.54
2022-12-23T19:52:32.175Z,990.6
2022-12-23T19:58:14.723Z,990.81
2022-12-23T20:03:57.921Z,990.8
2022-12-23T20:09:40.944Z,990.86
2022-12-23T20:15:23.907Z,991.04
2022-12-23T20:21:06.921Z,991.07
2022-12-23T20:26:51.036Z,991.09
2022-12-23T20:32:33.925Z,991.27
2022-12-23T20:38:16.991Z,991.32
2022-12-23T20:50:02.981Z,991.56
2022-12-23T20:55:45.798Z,991.66
2022-12-23T21:01:30.249Z,991.66
2022-12-23T21:07:13.418Z,991.82
2022-12-23T21:12:56.678Z,991.78
2022-12-23T21:18:40.282Z,991.94
2022-12-23T21:24:23.683Z,992
2022-12-23T21:30:07.327Z,992.13
2022-12-23T21:35:50.251Z,992.07
2022-12-23T21:41:35.114Z,992.16
2022-12-23T21:47:18.230Z,992.4
2022-12-23T21:53:01.185Z,992.48
2022-12-23T21:58:44.726Z,992.63
2022-12-23T22:04:27.668Z,992.59
2022-12-23T22:10:11.489Z,992.69
2022-12-23T22:15:54.532Z,992.63
2022-12-23T22:21:37.829Z,992.71
2022-12-23T22:27:20.996Z,992.66
2022-12-23T22:33:03.963Z,992.77
2022-12-23T22:38:54.015Z,992.78
2022-12-23T22:44:37.092Z,992.77
2022-12-23T22:50:20.295Z,992.76
2022-12-23T22:56:04.155Z,992.77
2022-12-23T23:01:47.302Z,992.73
2022-12-23T23:07:43.303Z,992.82
2022-12-23T23:13:33.823Z,992.92
2022-12-23T23:19:17.266Z,992.95
2022-12-23T23:25:00.466Z,992.96
2022-12-23T23:30:43.378Z,993.08
2022-12-23T23:36:26.579Z,993.2
2022-12-23T23:42:10.009Z,993.18
2022-12-23T23:47:52.911Z,993.22
2022-12-23T23:53:35.752Z,993.22
2022-12-23T23:59:18.796Z,993.33
